Flight Track Log - Related Links

Times and Time Zones

All times are in EDT time to prevent confusion due to time zone crossing. See the UAL4422 flight status page for this flight to view local times or setup timezone preferences in your user account.

Time Position Orientation Groundspeed Altitude Reporting Facility
EDT Latitude Longitude Course Direction KTS MPH feet Rate Location/Type
Sat 12:44:16 PM 26.7775 -80.0050 357° North 225 259 5,900  Level Miami Center
Sat 12:45:00 PM 26.8290 -80.1816 278° West  Level FlightAware Approximate
Sat 12:45:16 PM 26.8181 -80.0667 306° West 211 243 8,500  Level Miami Center
Sat 12:46:00 PM 26.8500 -80.2860 270° West  Level FlightAware Approximate
Sat 12:46:16 PM 26.8353 -80.1322 286° West 206 237 11,000  Level Miami Center
Sat 12:47:00 PM 26.9143 -80.3488 336° Northwest  Level FlightAware Approximate
Sat 12:47:16 PM 26.8442 -80.2022 278° West 241 277 12,000  Level Miami Center
Sat 12:48:00 PM 27.0036 -80.3934 336° Northwest  Level FlightAware Approximate
Sat 12:48:16 PM 26.8608 -80.2983 281° West 299 344 12,000  Level Miami Center
Sat 12:49:16 PM 26.9250 -80.3981 306° West 342 394 14,100 1,600 Climbing Miami Center
Sat 12:50:16 PM 26.9833 -80.4883 306° West 361 415 15,200 1,050 Climbing Miami Center
Sat 12:51:16 PM 27.0458 -80.5811 307° West 367 422 16,200 950 Climbing Miami Center
Sat 12:52:16 PM 27.1022 -80.6647 307° West 372 428 17,100 850 Climbing Miami Center
Sat 12:53:16 PM 27.1722 -80.7719 306° West 378 435 17,900 1,000 Climbing Miami Center
Sat 12:54:16 PM 27.2303 -80.8628 306° West 389 448 19,100 1,100 Climbing Miami Center
Sat 12:55:16 PM 27.2967 -80.9608 307° West 389 448 20,100 1,050 Climbing Miami Center
Sat 12:56:16 PM 27.3625 -81.0589 307° West 389 448 21,200 1,100 Climbing Miami Center
Sat 12:57:16 PM 27.4286 -81.1597 306° West 389 448 22,300 1,150 Climbing Miami Center
Sat 12:58:16 PM 27.4925 -81.2581 306° West 389 448 23,500 1,300 Climbing Miami Center
Sat 12:59:16 PM 27.5561 -81.3542 307° West 389 448 24,900 1,400 Climbing Miami Center
Sat 01:00:16 PM 27.6219 -81.4528 307° West 382 440 26,300 1,350 Climbing Miami Center
Sat 01:01:16 PM 27.6836 -81.5467 307° West 375 432 27,600 1,450 Climbing Miami Center
Sat 01:02:16 PM 27.7353 -81.6283 306° West 365 420 29,200 1,600 Climbing Miami Center
Sat 01:03:16 PM 27.7908 -81.7153 306° West 354 407 30,800 1,358 Climbing Miami Center
Sat 01:04:55 PM 27.8892 -81.8594 308° West 349 402 32,800 1,019 Climbing Jacksonville Center
Sat 01:05:55 PM 27.9442 -81.9458 306° West 344 396 33,500 600 Climbing Jacksonville Center
Sat 01:06:55 PM 28.0053 -82.0300 309° West 344 396 34,000 250 Climbing Jacksonville Center
Sat 01:07:55 PM 28.0703 -82.1164 310° West 351 404 34,000 400 Level Jacksonville Center
Sat 01:08:55 PM 28.1169 -82.2172 298° West 357 411 34,800 850 Climbing Jacksonville Center
Sat 01:09:55 PM 28.1611 -82.3158 297° West 362 417 35,700 600 Climbing Jacksonville Center
Sat 01:10:55 PM 28.2053 -82.4144 297° West 351 404 36,000 150 Climbing Jacksonville Center
Sat 01:11:55 PM 28.2494 -82.5086 298° West 363 418 36,000  Level Jacksonville Center
Sat 01:12:55 PM 28.2978 -82.6167 297° West 374 430 36,000  Level Jacksonville Center
Sat 01:13:55 PM 28.3461 -82.7228 297° West 380 437 36,000 -50 Level Jacksonville Center
Sat 01:14:55 PM 28.3961 -82.8336 297° West 386 444 35,900  Descending Jacksonville Center
Sat 01:15:55 PM 28.4461 -82.9444 297° West 386 444 36,000 50 Climbing Jacksonville Center
Sat 01:16:56 PM 28.4919 -83.0508 296° West 380 437 36,000 -50 Level Jacksonville Center
Sat 01:17:55 PM 28.5378 -83.1550 297° West 380 437 35,900  Descending Jacksonville Center
Sat 01:18:55 PM 28.5875 -83.2661 297° West 385 443 36,000 50 Climbing Jacksonville Center
Sat 01:19:55 PM 28.6372 -83.3750 298° West 385 443 36,000  Level Jacksonville Center
Sat 01:20:55 PM 28.6911 -83.4961 297° West 385 443 36,000  Level Jacksonville Center
Sat 01:21:55 PM 28.7428 -83.6125 297° West 391 450 36,000  Level Jacksonville Center
Sat 01:22:55 PM 28.7942 -83.7289 297° West 397 457 36,000  Level Jacksonville Center
Sat 01:23:55 PM 28.8456 -83.8456 297° West 407 468 36,000  Level Jacksonville Center
Sat 01:24:55 PM 28.8989 -83.9622 298° West 407 468 36,000  Level Jacksonville Center
Sat 01:25:56 PM 28.9458 -84.0742 296° West 402 463 36,000  Level Jacksonville Center
Sat 01:26:55 PM 28.9969 -84.1889 297° West 402 463 36,000  Level Jacksonville Center
Sat 01:27:55 PM 29.0478 -84.3033 297° West 402 463 36,000  Level Jacksonville Center
Sat 01:28:55 PM 29.0822 -84.4181 289° West 402 463 36,000 -50 Level Jacksonville Center
Sat 01:29:55 PM 29.0953 -84.5369 277° West 384 442 35,900  Descending Jacksonville Center
Sat 01:30:55 PM 29.1042 -84.6583 275° West 379 436 36,000 50 Climbing Jacksonville Center
Sat 01:31:56 PM 29.1192 -84.7775 278° West 379 436 36,000  Level Jacksonville Center
Sat 01:32:55 PM 29.1319 -84.8942 277° West 379 436 36,000  Level Jacksonville Center
Sat 01:33:55 PM 29.1425 -85.0156 276° West 379 436 36,000 -50 Level Jacksonville Center
Sat 01:34:55 PM 29.1550 -85.1325 277° West 384 442 35,900  Descending Jacksonville Center
Sat 01:35:55 PM 29.1675 -85.2539 277° West 384 442 36,000 50 Climbing Jacksonville Center
Sat 01:36:55 PM 29.1778 -85.3731 276° West 384 442 36,000 -50 Level Jacksonville Center
Sat 01:37:56 PM 29.1900 -85.4900 277° West 384 442 35,900  Descending Jacksonville Center
Sat 01:38:55 PM 29.2022 -85.6092 277° West 384 442 36,000  Climbing Jacksonville Center
Sat 01:39:55 PM 29.2122 -85.7261 276° West 384 442 35,900  Descending Jacksonville Center
Sat 01:40:55 PM 29.2242 -85.8406 277° West 384 442 36,000 50 Climbing Jacksonville Center
Sat 01:41:55 PM 29.2339 -85.9575 275° West 379 436 36,000  Level Jacksonville Center
Sat 01:42:56 PM 29.2456 -86.0767 276° West 379 436 36,000  Level Jacksonville Center
Sat 01:43:56 PM 29.2553 -86.1961 275° West 379 436 36,000  Level Jacksonville Center
Sat 01:44:55 PM 29.2667 -86.3156 276° West 379 436 36,000  Level Jacksonville Center
Sat 01:45:55 PM 29.2758 -86.4347 275° West 379 436 36,000  Level Jacksonville Center
Sat 01:46:55 PM 29.2872 -86.5542 276° West 379 436 36,000  Level Jacksonville Center
Sat 01:47:55 PM 29.3006 -86.6714 277° West 384 442 36,000  Level Jacksonville Center
Sat 01:48:55 PM 29.3094 -86.7908 275° West 384 442 36,000  Level Jacksonville Center
Sat 01:49:56 PM 29.3203 -86.9103 276° West 379 436 36,000  Level Jacksonville Center
Sat 01:50:55 PM 29.3311 -87.0297 276° West 379 436 36,000  Level Jacksonville Center
Sat 01:51:55 PM 29.3378 -87.1444 274° West 379 436 36,000  Level Jacksonville Center
Sat 01:54:13 PM 29.3603 -87.4111 276° West 385 443 36,000  Level Houston Center
Sat 01:55:15 PM 29.3700 -87.5406 275° West 383 441 36,000  Level Houston Center
Sat 01:56:17 PM 29.3800 -87.6639 275° West 387 445 36,000  Level Houston Center
Sat 01:57:18 PM 29.3883 -87.7878 274° West 389 448 36,000  Level Houston Center
Sat 01:58:20 PM 29.3978 -87.9119 275° West 392 451 36,000  Level Houston Center
Sat 01:59:22 PM 29.4069 -88.0364 275° West 392 451 36,000  Level Houston Center
Sat 02:00:24 PM 29.4103 -88.1606 272° West 389 448 36,000  Level Houston Center
Sat 02:01:26 PM 29.4147 -88.3069 272° West 384 442 36,000  Level Houston Center
Sat 02:02:28 PM 29.4164 -88.4158 271° West 385 443 36,000  Level Houston Center
Sat 02:03:30 PM 29.4200 -88.5372 272° West 383 441 36,000  Level Houston Center
Sat 02:04:32 PM 29.4239 -88.6825 272° West 382 440 36,000  Level Houston Center
Sat 02:05:34 PM 29.4267 -88.8050 272° West 382 440 36,000  Level Houston Center
Sat 02:06:36 PM 29.4283 -88.9281 271° West 386 444 36,000  Level Houston Center
Sat 02:07:38 PM 29.4306 -89.0492 271° West 383 441 36,000  Level Houston Center
Sat 02:08:40 PM 29.4339 -89.1728 272° West 387 445 36,000  Level Houston Center
Sat 02:09:42 PM 29.4356 -89.2964 271° West 389 448 36,000  Level Houston Center
Sat 02:10:44 PM 29.4381 -89.4467 271° West 391 450 36,000  Level Houston Center
Sat 02:11:46 PM 29.4406 -89.5711 271° West 391 450 36,000  Level Houston Center
Sat 02:12:48 PM 29.4422 -89.6953 271° West 390 449 36,000  Level Houston Center
Sat 02:13:50 PM 29.4439 -89.8200 271° West 390 449 36,000  Level Houston Center
Sat 02:14:52 PM 29.4461 -89.9447 271° West 392 451 36,000  Level Houston Center
Sat 02:15:54 PM 29.4467 -90.0692 270° West 390 449 36,000 -48 Level Houston Center
Sat 02:16:56 PM 29.4489 -90.1939 271° West 392 451 35,900  Descending Houston Center
Sat 02:17:58 PM 29.4508 -90.3431 271° West 391 450 36,000 48 Climbing Houston Center
Sat 02:19:00 PM 29.4517 -90.4678 270° West 391 450 36,000  Level Houston Center
Sat 02:20:02 PM 29.4531 -90.5928 271° West 393 452 36,000  Level Houston Center
Sat 02:21:05 PM 29.4536 -90.7156 270° West 388 447 36,000  Level Houston Center
Sat 02:22:07 PM 29.4553 -90.8425 271° West 395 455 36,000  Level Houston Center
Sat 02:23:09 PM 29.4553 -90.9650 270° West 387 445 36,000  Level Houston Center
Sat 02:24:11 PM 29.4567 -91.1083 271° West 376 433 36,000  Level Houston Center
Sat 02:25:13 PM 29.4572 -91.2269 270° West 375 432 36,000  Level Houston Center
Sat 02:26:15 PM 29.4572 -91.3422 270° West 364 419 36,000  Level Houston Center
Sat 02:27:17 PM 29.4581 -91.4561 271° West 360 414 36,000  Level Houston Center
Sat 02:28:19 PM 29.4581 -91.5722 270° West 362 417 36,000  Level Houston Center
Sat 02:29:21 PM 29.4578 -91.6875 270° West 361 415 36,000  Level Houston Center
Sat 02:30:23 PM 29.4578 -91.8103 270° West 364 419 36,000  Level Houston Center
Sat 02:31:24 PM 29.4583 -91.9258 270° West 363 418 36,000  Level Houston Center
Sat 02:32:26 PM 29.4578 -92.0628 270° West 359 413 36,000  Level Houston Center
Sat 02:33:28 PM 29.4586 -92.1789 271° West 362 417 36,000  Level Houston Center
Sat 02:34:31 PM 29.4569 -92.2953 269° West 365 420 36,000 -48 Level Houston Center
Sat 02:35:32 PM 29.4569 -92.4117 270° West 365 420 35,900  Descending Houston Center
Sat 02:36:34 PM 29.4592 -92.5278 271° West 365 420 36,000 48 Climbing Houston Center
Sat 02:37:36 PM 29.4647 -92.6428 273° West 363 418 36,000  Level Houston Center
Sat 02:38:38 PM 29.4700 -92.7592 273° West 366 421 36,000 -242 Level Houston Center
Sat 02:39:40 PM 29.4767 -92.9000 273° West 367 422 35,500 -1,210 Descending Houston Center
Sat 02:40:42 PM 29.4822 -93.0231 273° West 384 442 33,500 -1,984 Descending Houston Center
Sat 02:41:44 PM 29.4878 -93.1478 273° West 390 449 31,400 -2,081 Descending Houston Center
Sat 02:42:46 PM 29.4925 -93.2772 272° West 404 465 29,200 -2,081 Descending Houston Center
Sat 02:43:48 PM 29.4981 -93.4089 273° West 411 473 27,100 -2,081 Descending Houston Center
Sat 02:44:50 PM 29.5033 -93.5356 273° West 399 459 24,900 -2,032 Descending Houston Center
Sat 02:45:52 PM 29.5078 -93.6544 272° West 377 434 22,900 -2,177 Descending Houston Center
Sat 02:46:54 PM 29.5133 -93.7947 273° West 367 422 20,400 -2,208 Descending Houston Center
Sat 02:47:57 PM 29.5175 -93.9119 272° West 367 422 18,300 -1,854 Descending Houston Center
Sat 02:48:57 PM 29.5222 -94.0269 273° West 362 417 16,600 -2,283 Descending Houston Center
Sat 02:49:50 PM 29.5258 -94.1347 272° West 355 409 14,000 -2,059 Descending Houston Center
Sat 02:50:39 PM 29.5286 -94.2256 272° West 350 403 13,100 -845 Descending Houston Center
Sat 02:51:01 PM 29.5303 -94.2614 273° West 350 403 13,000 -98 Descending Houston Center
Sat 02:51:40 PM 29.5342 -94.3428 273° West 353 406 13,000 -97 Level Houston Center
Sat 02:52:03 PM 29.5458 -94.3733 294° West 367 422 12,900 -1,377 Descending Houston Center
Sat 02:52:41 PM 29.5783 -94.4500 296° West 367 422 11,600 -1,839 Descending Houston Center
Sat 02:53:05 PM 29.5925 -94.4794 299° West 373 429 11,000 -1,475 Descending Houston Center
Sat 02:53:42 PM 29.6247 -94.5569 296° West 366 421 10,100 -968 Descending Houston Center
Sat 02:54:07 PM 29.6356 -94.5831 296° West 366 421 10,000 -176 Descending Houston Center
Sat 02:54:50 PM 29.6739 -94.6733 296° West 358 412 9,900  Descending Houston Center
Sat 02:55:09 PM 29.6800 -94.6853 300° West 361 415 10,000  Climbing Houston Center
Sat 02:55:45 PM 29.7122 -94.7672 294° West 360 414 9,900  Descending Houston Center
Sat 02:56:11 PM 29.7311 -94.8067 299° West 356 410 10,000 -492 Climbing Houston Center
Sat 02:56:46 PM 29.7503 -94.8564 294° West 273 314 9,400 -1,161 Descending Houston Center
Sat 02:57:13 PM 29.7644 -94.8881 297° West 286 329 8,800 -1,967 Descending Houston Center
Sat 02:57:47 PM 29.7850 -94.9364 296° West 274 315 7,400 -1,839 Descending Houston Center
Sat 02:58:15 PM 29.7969 -94.9642 296° West 275 316 6,900 -1,355 Descending Houston Center
Sat 02:58:49 PM 29.8181 -95.0189 294° West 273 314 6,000 -871 Descending Houston Center
Sat 02:59:17 PM 29.8300 -95.0422 301° West 275 316 6,000  Level Houston Center
Sat 02:59:49 PM 29.8528 -95.0964 296° West 272 313 6,000 97 Level Houston Center
Sat 03:00:19 PM 29.8633 -95.1189 298° West 271 312 6,100  Climbing Houston Center
Sat 03:00:57 PM 29.8906 -95.1858 295° West 272 313 6,000 -97 Descending Houston Center
Sat 03:01:21 PM 29.8997 -95.2133 291° West 272 313 6,000  Level Houston Center
Sat 03:01:53 PM 29.8997 -95.2642 270° West 268 308 6,000  Level Houston Center
Sat 03:02:23 PM 29.9000 -95.2997 271° West 275 316 6,000  Level Houston Center
Sat 03:02:54 PM 29.8994 -95.3511 269° West 272 313 6,000 97 Level Houston Center
Sat 03:03:25 PM 29.9006 -95.3856 272° West 270 311 6,100 -90 Climbing Houston Center
Sat 03:04:01 PM 29.8994 -95.4450 269° West 240 276 5,900 -581 Descending Houston Center
Sat 03:04:27 PM 29.9008 -95.4658 274° West 260 299 5,500 -1,636 Descending Houston Center
Sat 03:04:56 PM 29.9011 -95.5075 270° West 217 250 4,400 -1,574 Descending Houston Center
Sat 03:05:28 PM 29.9006 -95.5367 269° West 232 267 3,900 -1,377 Descending Houston Center
Sat 03:05:57 PM 29.9178 -95.5778 296° West 226 260 3,000 -968 Descending Houston Center
Sat 03:06:30 PM 29.9500 -95.5858 348° North 223 257 2,900 -90 Descending Houston Center
Sat 03:07:04 PM 29.9797 -95.5875 357° North 195 224 2,900 97 Level Houston Center
Sat 03:07:32 PM 29.9919 -95.5636 59° Northeast 204 235 3,000 97 Climbing Houston Center
Sat 03:08:06 PM 29.9914 -95.5331 91° East 176 203 3,000 -387 Level Houston Center
Sat 03:08:34 PM 29.9933 -95.5058 85° East 187 215 2,600 -857 Descending Houston Center

Login

Don't have an account? Register now (free) for customized features, flight alerts, and more!